Time;durP1;ratioP1;P1;durP2;ratioP2;P2;SDS_P1;SDS_P2;PMS_P1;PMS_P2;Temp;Humidity;BMP_temperature;BMP_pressure;BME280_temperature;BME280_humidity;BME280_pressure;Samples;Min_cycle;Max_cycle;Signal;HPM_P1;HPM_P2
2023/01/01 00:01:22;;;;;;;;;;;;;;;;;;5044034;28;20692;-82
2023/01/01 00:03:49;;;;;;;53.67;35.95;;;;;;;;;;5033912;28;19905;-81
2023/01/01 00:06:15;;;;;;;73.35;43.72;;;;;;;;;;5035670;28;20075;-82
2023/01/01 00:08:41;;;;;;;126.95;78.43;;;;;;;;;;5050265;28;20036;-81
2023/01/01 00:11:09;;;;;;;90.40;53.97;;;;;;;;;;5043324;28;20029;-81
2023/01/01 00:13:36;;;;;;;84.35;52.13;;;;;;;;;;5036555;28;20085;-80
2023/01/01 00:16:06;;;;;;;83.75;52.67;;;;;;;;;;5051601;28;20472;-80
2023/01/01 00:18:33;;;;;;;82.07;51.08;;;;;;;;;;5021872;28;20026;-80
2023/01/01 00:21:05;;;;;;;84.97;55.10;;;;;;;;;;5035986;28;20022;-79
2023/01/01 00:23:32;;;;;;;92.85;59.85;;;;;;;;;;5028204;28;20017;-79
2023/01/01 00:25:58;;;;;;;97.53;60.75;;;;;;;;;;5034767;28;20030;-80
2023/01/01 00:28:24;;;;;;;78.82;48.90;;;;;;;;;;5032459;28;20075;-82
2023/01/01 00:30:50;;;;;;;77.63;48.03;;;;;;;;;;5040634;28;20025;-81
2023/01/01 00:33:16;;;;;;;68.63;42.10;;;;;;;;;;5031478;28;20036;-80
2023/01/01 00:35:42;;;;;;;70.05;42.60;;;;;;;;;;5034141;28;20033;-81
2023/01/01 00:38:08;;;;;;;62.17;39.20;;;;;;;;;;5034544;28;20025;-82
2023/01/01 00:40:34;;;;;;;61.55;37.95;;;;;;;;;;5028705;28;20026;-83
2023/01/01 00:43:00;;;;;;;63.33;37.55;;;;;;;;;;5024018;28;20032;-82
2023/01/01 00:45:26;;;;;;;58.55;35.75;;;;;;;;;;5033211;28;20104;-80
2023/01/01 00:47:52;;;;;;;63.60;38.53;;;;;;;;;;5020733;28;20097;-81
2023/01/01 00:50:19;;;;;;;62.20;38.88;;;;;;;;;;5013915;28;20030;-79
2023/01/01 00:52:45;;;;;;;76.97;46.58;;;;;;;;;;5036935;28;20030;-79
2023/01/01 00:55:12;;;;;;;85.43;47.72;;;;;;;;;;5032906;28;20091;-83
2023/01/01 00:57:38;;;;;;;71.88;43.53;;;;;;;;;;5032428;28;20036;-83
2023/01/01 01:00:05;;;;;;;67.38;40.45;;;;;;;;;;5052633;28;20045;-81
2023/01/01 01:02:31;;;;;;;63.17;34.95;;;;;;;;;;5032299;28;20368;-81
2023/01/01 01:04:57;;;;;;;61.58;34.90;;;;;;;;;;5029024;28;20018;-80
2023/01/01 01:07:23;;;;;;;55.42;34.53;;;;;;;;;;5020769;28;20025;-80
2023/01/01 01:09:49;;;;;;;58.42;34.70;;;;;;;;;;5033678;28;20032;-80
2023/01/01 01:12:15;;;;;;;54.45;33.33;;;;;;;;;;5017975;28;20034;-81
2023/01/01 01:14:41;;;;;;;55.03;33.60;;;;;;;;;;5046802;28;20364;-80
2023/01/01 01:17:07;;;;;;;61.72;36.03;;;;;;;;;;5042650;28;20030;-79
2023/01/01 01:19:33;;;;;;;56.63;34.95;;;;;;;;;;5031500;28;20613;-80
2023/01/01 01:21:59;;;;;;;58.38;33.63;;;;;;;;;;5031223;28;20083;-80
2023/01/01 01:24:26;;;;;;;54.45;32.78;;;;;;;;;;5033265;28;20017;-80
2023/01/01 01:26:52;;;;;;;53.63;32.22;;;;;;;;;;5033299;28;20087;-80
2023/01/01 01:29:18;;;;;;;53.58;31.83;;;;;;;;;;5040228;28;20052;-81
2023/01/01 01:31:44;;;;;;;56.45;33.58;;;;;;;;;;5026481;28;20022;-80
2023/01/01 01:34:10;;;;;;;57.78;32.60;;;;;;;;;;5031258;28;20022;-80
2023/01/01 01:36:36;;;;;;;59.45;34.55;;;;;;;;;;5032480;28;20026;-80
2023/01/01 01:39:02;;;;;;;62.17;36.78;;;;;;;;;;5032282;28;20040;-80
2023/01/01 01:41:28;;;;;;;65.68;35.92;;;;;;;;;;5031526;28;20033;-81
2023/01/01 01:44:49;;;;;;;64.25;37.55;;;;;;;;;;5131756;27;20470;-80
2023/01/01 01:47:54;;;;;;;59.53;35.72;;;;;;;;;;5130215;27;20034;-78
2023/01/01 01:50:31;;;;;;;54.38;31.40;;;;;;;;;;5078280;28;20512;-79
2023/01/01 01:52:57;;;;;;;57.60;31.65;;;;;;;;;;5065062;28;20028;-82
2023/01/01 01:55:24;;;;;;;59.42;34.10;;;;;;;;;;5083095;28;20138;-80
2023/01/01 01:57:52;;;;;;;54.92;30.40;;;;;;;;;;5086506;28;20059;-79
2023/01/01 02:00:18;;;;;;;51.72;29.58;;;;;;;;;;5085821;28;20332;-80
2023/01/01 02:02:50;;;;;;;49.15;31.05;;;;;;;;;;5079080;28;20051;-80
2023/01/01 02:05:18;;;;;;;50.08;28.58;;;;;;;;;;5094385;28;20023;-78
2023/01/01 02:07:44;;;;;;;47.58;28.70;;;;;;;;;;5086672;28;20033;-78
2023/01/01 02:10:11;;;;;;;52.88;29.83;;;;;;;;;;5084560;28;20033;-80
2023/01/01 02:12:37;;;;;;;51.20;29.25;;;;;;;;;;5080265;28;20032;-80
2023/01/01 02:15:03;;;;;;;44.65;28.52;;;;;;;;;;5087230;28;20033;-80
2023/01/01 02:17:29;;;;;;;45.50;28.55;;;;;;;;;;5062575;28;20674;-79
2023/01/01 02:20:01;;;;;;;48.15;29.10;;;;;;;;;;5068971;28;20029;-79
2023/01/01 02:22:27;;;;;;;45.35;28.83;;;;;;;;;;5126094;28;20567;-81
2023/01/01 02:25:02;;;;;;;46.55;31.67;;;;;;;;;;5111873;27;20028;-79
2023/01/01 02:27:43;;;;;;;47.42;29.70;;;;;;;;;;5111698;28;20023;-79
2023/01/01 02:30:10;;;;;;;50.35;30.67;;;;;;;;;;5123801;28;20020;-77
2023/01/01 02:32:47;;;;;;;42.97;28.00;;;;;;;;;;5112427;28;20034;-78
2023/01/01 02:35:34;;;;;;;49.15;27.85;;;;;;;;;;5129629;28;20388;-78
2023/01/01 02:38:13;;;;;;;47.92;27.67;;;;;;;;;;5130170;28;20386;-77
2023/01/01 02:40:42;;;;;;;39.97;26.38;;;;;;;;;;5126779;28;20107;-79
2023/01/01 02:43:08;;;;;;;37.70;24.27;;;;;;;;;;5114881;27;20042;-81
2023/01/01 02:45:34;;;;;;;40.08;25.55;;;;;;;;;;5128493;28;20058;-79
2023/01/01 02:48:23;;;;;;;43.53;25.88;;;;;;;;;;5116631;28;20024;-78
2023/01/01 02:50:49;;;;;;;45.00;25.42;;;;;;;;;;5110265;28;20115;-80
2023/01/01 02:53:15;;;;;;;38.35;25.02;;;;;;;;;;5107822;28;20024;-79
2023/01/01 02:55:44;;;;;;;43.90;25.77;;;;;;;;;;5097720;28;20035;-79
2023/01/01 03:00:57;;;;;;;43.17;26.38;;;;;;;;;;5104226;28;20516;-79
2023/01/01 03:03:52;;;;;;;46.33;26.48;;;;;;;;;;5112748;28;20031;-80
2023/01/01 03:06:27;;;;;;;41.83;25.88;;;;;;;;;;5061704;28;20102;-79
2023/01/01 03:08:59;;;;;;;41.55;25.15;;;;;;;;;;5107396;28;20028;-77
2023/01/01 03:11:32;;;;;;;43.13;25.75;;;;;;;;;;5110126;28;20520;-78
2023/01/01 03:14:05;;;;;;;41.63;24.88;;;;;;;;;;5114786;28;20028;-79
2023/01/01 03:16:45;;;;;;;39.80;23.35;;;;;;;;;;5094553;28;20043;-79
2023/01/01 03:19:16;;;;;;;44.05;24.70;;;;;;;;;;5093080;28;20031;-80
2023/01/01 03:21:55;;;;;;;40.35;24.77;;;;;;;;;;5105739;28;20063;-79
2023/01/01 03:24:21;;;;;;;37.90;23.67;;;;;;;;;;5114268;27;20115;-80
2023/01/01 03:26:49;;;;;;;41.80;23.95;;;;;;;;;;5106150;28;20055;-80
2023/01/01 03:29:16;;;;;;;40.25;24.23;;;;;;;;;;5092820;28;20429;-80
2023/01/01 03:31:44;;;;;;;40.25;22.60;;;;;;;;;;5100741;28;20381;-78
2023/01/01 03:34:13;;;;;;;40.25;24.13;;;;;;;;;;5102183;28;20024;-79
2023/01/01 03:36:41;;;;;;;45.35;25.50;;;;;;;;;;5106031;28;20039;-79
2023/01/01 03:39:26;;;;;;;38.97;24.67;;;;;;;;;;5097497;28;20031;-81
2023/01/01 03:41:57;;;;;;;41.45;23.75;;;;;;;;;;5104343;28;20493;-81
2023/01/01 03:44:23;;;;;;;39.95;25.00;;;;;;;;;;5091766;28;20056;-79
2023/01/01 03:46:49;;;;;;;45.72;25.88;;;;;;;;;;5104529;28;20027;-79
2023/01/01 03:49:16;;;;;;;45.17;27.10;;;;;;;;;;5110475;28;20028;-79
2023/01/01 03:51:48;;;;;;;43.97;26.40;;;;;;;;;;5094600;28;20020;-79
2023/01/01 03:54:23;;;;;;;38.95;23.98;;;;;;;;;;5093278;28;20126;-79
2023/01/01 03:56:52;;;;;;;41.65;24.48;;;;;;;;;;5101913;28;20542;-80
2023/01/01 03:59:24;;;;;;;43.05;26.73;;;;;;;;;;5110529;28;20465;-79
2023/01/01 04:01:57;;;;;;;42.28;25.00;;;;;;;;;;5099644;28;20032;-79
2023/01/01 04:04:24;;;;;;;46.20;25.98;;;;;;;;;;5109180;28;20046;-81
2023/01/01 04:06:50;;;;;;;50.25;27.25;;;;;;;;;;5110534;28;20032;-79
2023/01/01 04:09:18;;;;;;;48.78;26.52;;;;;;;;;;5104790;28;20016;-80
2023/01/01 04:12:00;;;;;;;47.63;25.95;;;;;;;;;;5092889;28;20048;-79
2023/01/01 04:14:29;;;;;;;49.10;26.63;;;;;;;;;;5093152;28;20486;-79
2023/01/01 04:16:55;;;;;;;45.22;27.13;;;;;;;;;;5103575;28;20659;-78
2023/01/01 04:19:21;;;;;;;73.38;38.63;;;;;;;;;;5092189;28;20031;-81
2023/01/01 04:21:47;;;;;;;46.50;29.52;;;;;;;;;;5092611;28;20032;-80
2023/01/01 04:24:13;;;;;;;41.45;24.58;;;;;;;;;;5095488;28;20044;-78
2023/01/01 04:26:40;;;;;;;39.97;24.13;;;;;;;;;;5109597;28;20118;-80
2023/01/01 04:29:06;;;;;;;38.83;22.20;;;;;;;;;;5106168;28;20022;-79
2023/01/01 04:31:34;;;;;;;62.38;38.38;;;;;;;;;;5092617;28;20024;-79
2023/01/01 04:34:00;;;;;;;43.13;26.27;;;;;;;;;;5092545;28;20051;-77
2023/01/01 04:36:26;;;;;;;47.33;24.98;;;;;;;;;;5099272;28;20031;-78
2023/01/01 04:38:52;;;;;;;48.55;27.52;;;;;;;;;;5094700;28;20032;-79
2023/01/01 04:41:18;;;;;;;46.60;26.35;;;;;;;;;;5091010;28;20027;-78
2023/01/01 04:43:50;;;;;;;47.55;28.42;;;;;;;;;;5092136;28;20036;-81
2023/01/01 04:46:17;;;;;;;51.67;29.52;;;;;;;;;;5106116;28;20023;-79
2023/01/01 04:48:43;;;;;;;50.20;28.70;;;;;;;;;;5113000;28;20457;-79
2023/01/01 04:51:10;;;;;;;50.05;31.73;;;;;;;;;;5104878;28;20470;-80
2023/01/01 04:53:36;;;;;;;54.50;29.95;;;;;;;;;;5093358;28;20020;-79
2023/01/01 04:56:04;;;;;;;43.25;28.05;;;;;;;;;;5092176;28;20501;-80
2023/01/01 04:58:31;;;;;;;45.78;27.92;;;;;;;;;;5091869;28;20389;-80
2023/01/01 05:00:57;;;;;;;50.90;30.35;;;;;;;;;;5107380;28;20027;-79
2023/01/01 05:03:23;;;;;;;52.72;31.13;;;;;;;;;;5108824;28;20036;-80
2023/01/01 05:06:03;;;;;;;52.92;32.30;;;;;;;;;;5090856;28;20146;-79
2023/01/01 05:08:29;;;;;;;48.72;30.35;;;;;;;;;;5107449;28;20011;-80
2023/01/01 05:10:59;;;;;;;49.53;29.45;;;;;;;;;;5108420;28;20026;-78
2023/01/01 05:13:25;;;;;;;49.58;27.55;;;;;;;;;;5114873;28;20110;-78
2023/01/01 05:15:51;;;;;;;52.35;29.80;;;;;;;;;;5111326;28;20138;-78
2023/01/01 05:18:17;;;;;;;44.03;25.50;;;;;;;;;;5110812;28;20073;-80
2023/01/01 05:20:43;;;;;;;42.47;26.67;;;;;;;;;;5092108;28;20087;-78
2023/01/01 05:23:09;;;;;;;44.95;27.13;;;;;;;;;;5093731;28;20431;-79
2023/01/01 05:25:35;;;;;;;43.15;26.42;;;;;;;;;;5100132;28;20032;-79
2023/01/01 05:28:01;;;;;;;48.45;27.05;;;;;;;;;;5112579;28;20078;-79
2023/01/01 05:30:27;;;;;;;43.25;23.73;;;;;;;;;;5107706;28;20169;-79
2023/01/01 05:32:53;;;;;;;48.17;26.83;;;;;;;;;;5092408;28;20028;-79
2023/01/01 05:35:19;;;;;;;44.83;25.20;;;;;;;;;;5093682;28;20028;-80
2023/01/01 05:37:45;;;;;;;51.40;27.80;;;;;;;;;;5097949;28;20034;-79
2023/01/01 05:40:11;;;;;;;55.15;30.25;;;;;;;;;;5098793;28;20647;-78
2023/01/01 05:42:37;;;;;;;47.03;27.63;;;;;;;;;;5091355;28;20498;-81
2023/01/01 05:45:04;;;;;;;45.10;26.90;;;;;;;;;;5090812;28;20027;-81
2023/01/01 05:47:30;;;;;;;48.90;26.40;;;;;;;;;;5107720;28;20027;-80
2023/01/01 05:49:56;;;;;;;46.55;30.00;;;;;;;;;;5109976;28;20023;-82
2023/01/01 05:52:23;;;;;;;50.88;29.63;;;;;;;;;;5111593;28;20031;-80
2023/01/01 05:54:49;;;;;;;45.55;26.55;;;;;;;;;;5111864;28;20015;-79
2023/01/01 05:57:15;;;;;;;47.22;27.45;;;;;;;;;;5099603;28;20042;-81
2023/01/01 05:59:41;;;;;;;49.13;27.63;;;;;;;;;;5111643;28;20020;-79
2023/01/01 06:02:07;;;;;;;46.50;27.33;;;;;;;;;;5109957;28;20100;-81
2023/01/01 06:04:33;;;;;;;52.05;28.80;;;;;;;;;;5098097;28;20028;-83
2023/01/01 06:06:59;;;;;;;51.55;31.13;;;;;;;;;;5094453;28;20036;-80
2023/01/01 06:09:27;;;;;;;52.60;30.40;;;;;;;;;;5103919;28;20488;-80
2023/01/01 06:11:52;;;;;;;55.35;28.85;;;;;;;;;;5111638;28;20559;-79
2023/01/01 06:14:18;;;;;;;60.38;33.22;;;;;;;;;;5098652;28;20135;-79
2023/01/01 06:16:44;;;;;;;52.00;30.70;;;;;;;;;;5090505;28;20318;-79
2023/01/01 06:19:10;;;;;;;53.22;29.25;;;;;;;;;;5098587;28;20023;-79
2023/01/01 06:21:36;;;;;;;49.38;29.67;;;;;;;;;;5092609;28;20031;-81
2023/01/01 06:24:02;;;;;;;45.28;28.13;;;;;;;;;;5091197;28;20491;-79
2023/01/01 06:26:30;;;;;;;53.15;30.42;;;;;;;;;;5090900;28;20027;-80
2023/01/01 06:28:57;;;;;;;58.47;31.92;;;;;;;;;;5093117;28;20024;-79
2023/01/01 06:31:23;;;;;;;55.40;31.67;;;;;;;;;;5108423;28;20684;-79
2023/01/01 06:33:49;;;;;;;55.17;33.00;;;;;;;;;;5101307;27;20032;-79
2023/01/01 06:36:17;;;;;;;57.65;33.83;;;;;;;;;;5103743;27;20539;-80
2023/01/01 06:38:44;;;;;;;58.33;32.05;;;;;;;;;;5107627;27;20483;-78
2023/01/01 06:41:11;;;;;;;49.80;31.05;;;;;;;;;;5104937;28;20019;-80
2023/01/01 06:43:37;;;;;;;57.10;32.70;;;;;;;;;;5105214;28;20040;-79
2023/01/01 06:46:08;;;;;;;68.32;33.45;;;;;;;;;;5105547;27;20078;-79
2023/01/01 06:48:35;;;;;;;55.55;31.38;;;;;;;;;;5101741;27;20469;-78
2023/01/01 06:51:10;;;;;;;55.20;31.55;;;;;;;;;;5104012;28;20035;-79
2023/01/01 06:53:36;;;;;;;54.03;31.63;;;;;;;;;;5099179;28;20115;-79
2023/01/01 06:56:02;;;;;;;56.53;31.13;;;;;;;;;;5093943;28;20028;-78
2023/01/01 06:58:28;;;;;;;52.72;30.42;;;;;;;;;;5098916;28;20028;-78
2023/01/01 07:00:54;;;;;;;50.45;30.30;;;;;;;;;;5109771;28;20081;-79
2023/01/01 07:03:20;;;;;;;60.35;32.40;;;;;;;;;;5095014;28;20064;-77
2023/01/01 07:05:46;;;;;;;52.78;31.67;;;;;;;;;;5092950;28;20118;-78
2023/01/01 07:08:12;;;;;;;59.25;33.00;;;;;;;;;;5096778;28;20023;-80
2023/01/01 07:10:38;;;;;;;52.13;30.52;;;;;;;;;;5112531;28;20030;-77
2023/01/01 07:13:04;;;;;;;58.05;31.73;;;;;;;;;;5100490;28;20027;-79
2023/01/01 07:15:30;;;;;;;48.72;28.98;;;;;;;;;;5102264;27;20024;-80
2023/01/01 07:17:56;;;;;;;52.22;30.85;;;;;;;;;;5105360;28;20035;-79
2023/01/01 07:20:22;;;;;;;59.83;33.42;;;;;;;;;;5111884;28;20440;-79
2023/01/01 07:22:48;;;;;;;54.63;31.92;;;;;;;;;;5092560;28;20020;-78
2023/01/01 07:25:15;;;;;;;55.20;30.85;;;;;;;;;;5100477;28;20623;-79
2023/01/01 07:27:41;;;;;;;51.20;30.38;;;;;;;;;;5099836;28;20075;-79
2023/01/01 07:30:07;;;;;;;56.88;31.13;;;;;;;;;;5102998;28;20062;-78
2023/01/01 07:32:33;;;;;;;50.88;29.65;;;;;;;;;;5112758;28;20024;-77
2023/01/01 07:34:59;;;;;;;49.45;30.48;;;;;;;;;;5113287;28;20019;-77
2023/01/01 07:37:25;;;;;;;52.13;30.48;;;;;;;;;;5110243;28;20023;-78
2023/01/01 07:39:51;;;;;;;52.75;32.88;;;;;;;;;;5094301;28;20028;-81
2023/01/01 07:42:17;;;;;;;50.15;30.83;;;;;;;;;;5095691;28;20102;-80
2023/01/01 07:44:44;;;;;;;60.10;33.45;;;;;;;;;;5113575;28;20023;-78
2023/01/01 07:47:25;;;;;;;61.47;36.22;;;;;;;;;;5104064;28;20026;-78
2023/01/01 07:49:52;;;;;;;59.97;34.80;;;;;;;;;;5109999;28;20473;-78
2023/01/01 07:52:18;;;;;;;57.05;34.00;;;;;;;;;;5105605;28;20060;-78
2023/01/01 07:54:44;;;;;;;49.88;33.80;;;;;;;;;;5093637;28;20536;-79
2023/01/01 07:57:10;;;;;;;53.50;33.83;;;;;;;;;;5091345;28;20028;-79
2023/01/01 07:59:36;;;;;;;57.78;34.38;;;;;;;;;;5106533;28;20040;-78
2023/01/01 08:02:03;;;;;;;59.17;35.70;;;;;;;;;;5095398;27;20093;-79
2023/01/01 08:04:29;;;;;;;58.05;35.78;;;;;;;;;;5101474;28;20020;-79
2023/01/01 08:06:55;;;;;;;58.10;35.30;;;;;;;;;;5093180;28;20085;-79
2023/01/01 08:09:21;;;;;;;56.67;35.22;;;;;;;;;;5107922;28;20039;-79
2023/01/01 08:11:47;;;;;;;59.70;34.72;;;;;;;;;;5111401;28;20019;-79
2023/01/01 08:14:13;;;;;;;52.10;32.30;;;;;;;;;;5104651;28;20406;-78
2023/01/01 08:16:39;;;;;;;55.15;33.03;;;;;;;;;;5110366;27;20035;-79
2023/01/01 08:19:05;;;;;;;51.30;31.88;;;;;;;;;;5113115;28;20030;-79
2023/01/01 08:21:31;;;;;;;54.05;32.78;;;;;;;;;;5107625;28;20102;-80
2023/01/01 08:23:57;;;;;;;50.75;30.55;;;;;;;;;;5112030;28;20477;-78
2023/01/01 08:26:31;;;;;;;52.22;31.10;;;;;;;;;;5111696;28;20024;-79
2023/01/01 08:28:57;;;;;;;51.28;30.00;;;;;;;;;;5098431;28;20386;-79
2023/01/01 08:31:24;;;;;;;50.83;30.52;;;;;;;;;;5107006;28;20020;-78
2023/01/01 08:33:50;;;;;;;50.42;30.38;;;;;;;;;;5099098;28;20031;-79
2023/01/01 08:36:16;;;;;;;53.22;31.27;;;;;;;;;;5105801;27;20027;-80
2023/01/01 08:38:42;;;;;;;58.10;33.67;;;;;;;;;;5102770;28;20023;-78
2023/01/01 08:41:09;;;;;;;48.92;32.00;;;;;;;;;;5098525;28;20114;-79
2023/01/01 08:43:38;;;;;;;52.70;33.72;;;;;;;;;;5106326;28;20562;-78
2023/01/01 08:46:04;;;;;;;53.20;32.60;;;;;;;;;;5095366;28;20496;-78
2023/01/01 08:48:30;;;;;;;60.10;37.10;;;;;;;;;;5096652;28;20026;-79
2023/01/01 08:50:59;;;;;;;57.15;34.53;;;;;;;;;;5102226;28;20019;-79
2023/01/01 08:53:25;;;;;;;59.17;36.47;;;;;;;;;;5108622;27;20036;-79
2023/01/01 08:55:58;;;;;;;54.92;37.42;;;;;;;;;;5103883;27;20028;-78
2023/01/01 08:58:25;;;;;;;59.00;41.67;;;;;;;;;;5093529;28;20398;-79
2023/01/01 09:00:51;;;;;;;63.10;40.83;;;;;;;;;;5102585;28;20496;-81
2023/01/01 09:03:17;;;;;;;55.85;36.72;;;;;;;;;;5106473;28;20024;-77
2023/01/01 09:05:44;;;;;;;50.50;33.13;;;;;;;;;;5113232;28;20030;-83
2023/01/01 09:08:14;;;;;;;51.95;32.42;;;;;;;;;;5114408;28;20012;-82
2023/01/01 09:10:42;;;;;;;51.60;31.88;;;;;;;;;;5113234;28;20423;-80
2023/01/01 09:13:08;;;;;;;48.67;30.70;;;;;;;;;;5108937;28;20023;-79
2023/01/01 09:15:34;;;;;;;48.42;31.67;;;;;;;;;;5111432;28;20032;-78
2023/01/01 09:18:00;;;;;;;50.03;32.17;;;;;;;;;;5109956;28;20115;-80
2023/01/01 09:20:26;;;;;;;49.45;33.67;;;;;;;;;;5094636;28;20111;-78
2023/01/01 09:22:52;;;;;;;48.78;33.13;;;;;;;;;;5098800;28;20511;-80
2023/01/01 09:25:18;;;;;;;47.55;31.88;;;;;;;;;;5104249;28;20024;-79
2023/01/01 09:27:44;;;;;;;47.42;31.08;;;;;;;;;;5112803;28;20015;-78
2023/01/01 09:30:11;;;;;;;47.08;31.13;;;;;;;;;;5098576;28;20028;-79
2023/01/01 09:32:39;;;;;;;48.28;31.75;;;;;;;;;;5092855;28;20065;-77
2023/01/01 09:35:05;;;;;;;54.30;34.20;;;;;;;;;;5108327;28;20016;-79
2023/01/01 09:37:31;;;;;;;55.65;37.40;;;;;;;;;;5110978;28;20108;-78
2023/01/01 09:39:57;;;;;;;56.05;37.55;;;;;;;;;;5104330;28;20473;-79
2023/01/01 09:42:23;;;;;;;53.50;34.50;;;;;;;;;;5099558;28;20020;-80
2023/01/01 09:44:54;;;;;;;51.67;35.28;;;;;;;;;;5094299;28;20032;-80
2023/01/01 09:47:23;;;;;;;54.15;36.53;;;;;;;;;;5098010;28;20104;-80
2023/01/01 09:49:50;;;;;;;49.58;34.22;;;;;;;;;;5113528;28;20020;-80
2023/01/01 09:52:16;;;;;;;51.42;31.40;;;;;;;;;;5106224;28;20030;-79
2023/01/01 09:55:08;;;;;;;47.08;32.28;;;;;;;;;;5103101;28;20039;-80
2023/01/01 09:57:34;;;;;;;44.20;29.90;;;;;;;;;;5098600;28;20086;-81
2023/01/01 10:00:00;;;;;;;48.15;30.40;;;;;;;;;;5101360;28;20020;-79
2023/01/01 10:02:45;;;;;;;44.60;28.88;;;;;;;;;;5093466;28;20032;-79
2023/01/01 10:05:41;;;;;;;38.53;24.67;;;;;;;;;;5099725;28;20135;-79
2023/01/01 10:08:07;;;;;;;42.97;27.48;;;;;;;;;;5077082;28;20058;-80
2023/01/01 10:10:33;;;;;;;35.88;23.58;;;;;;;;;;5122812;27;20548;-78
2023/01/01 10:13:07;;;;;;;44.75;27.25;;;;;;;;;;5103114;28;20066;-79
2023/01/01 10:15:38;;;;;;;38.13;23.48;;;;;;;;;;5111675;27;20027;-81
2023/01/01 10:18:09;;;;;;;44.65;29.13;;;;;;;;;;5112370;28;20028;-80
2023/01/01 10:20:40;;;;;;;39.65;25.52;;;;;;;;;;5100521;28;20019;-81
2023/01/01 10:23:19;;;;;;;37.78;25.63;;;;;;;;;;5111402;28;20028;-81
2023/01/01 10:25:45;;;;;;;39.60;25.10;;;;;;;;;;5113252;28;20024;-79
2023/01/01 10:28:20;;;;;;;46.50;28.73;;;;;;;;;;5118967;27;20430;-80
2023/01/01 10:30:46;;;;;;;36.42;24.20;;;;;;;;;;5110877;28;20049;-81
2023/01/01 10:33:13;;;;;;;38.20;25.77;;;;;;;;;;5105531;28;20088;-81
2023/01/01 10:35:41;;;;;;;36.00;23.55;;;;;;;;;;5113361;28;20088;-81
2023/01/01 10:38:10;;;;;;;36.05;22.08;;;;;;;;;;5105473;28;20112;-80
2023/01/01 10:40:36;;;;;;;35.20;22.23;;;;;;;;;;5114539;28;20034;-81
2023/01/01 10:43:03;;;;;;;33.03;20.08;;;;;;;;;;5122953;28;20036;-81
2023/01/01 10:45:34;;;;;;;34.10;20.38;;;;;;;;;;5116008;28;20140;-81
2023/01/01 10:48:14;;;;;;;34.65;22.38;;;;;;;;;;5101162;28;20013;-80
2023/01/01 10:50:41;;;;;;;33.85;22.88;;;;;;;;;;5111386;28;20020;-80
2023/01/01 10:53:19;;;;;;;39.85;23.58;;;;;;;;;;5120753;28;20110;-80
2023/01/01 10:55:50;;;;;;;35.92;22.30;;;;;;;;;;5100789;28;20095;-79
2023/01/01 10:58:45;;;;;;;35.65;21.00;;;;;;;;;;5102581;28;20028;-80
2023/01/01 11:01:13;;;;;;;32.40;21.02;;;;;;;;;;5112105;27;20462;-80
2023/01/01 11:03:52;;;;;;;30.77;19.85;;;;;;;;;;5105319;28;20035;-80
2023/01/01 11:06:34;;;;;;;30.10;19.55;;;;;;;;;;5109087;28;20011;-81
2023/01/01 11:09:02;;;;;;;25.75;17.85;;;;;;;;;;5110317;27;20477;-81
2023/01/01 11:11:31;;;;;;;26.42;18.77;;;;;;;;;;5110035;28;20023;-81
2023/01/01 11:14:03;;;;;;;24.67;16.27;;;;;;;;;;5114181;28;20020;-81
2023/01/01 11:16:29;;;;;;;25.33;16.63;;;;;;;;;;5102141;28;20093;-81
2023/01/01 11:19:03;;;;;;;23.48;18.45;;;;;;;;;;5099125;28;20039;-80
2023/01/01 11:21:29;;;;;;;23.95;16.42;;;;;;;;;;5104911;28;20081;-81
2023/01/01 11:24:14;;;;;;;25.17;16.38;;;;;;;;;;5107733;28;20123;-81
2023/01/01 11:26:40;;;;;;;25.13;17.33;;;;;;;;;;5101049;28;20087;-81
2023/01/01 11:29:18;;;;;;;27.25;19.10;;;;;;;;;;5103446;28;20031;-81
2023/01/01 11:31:46;;;;;;;26.40;17.55;;;;;;;;;;5110734;28;20032;-81
2023/01/01 11:34:25;;;;;;;24.25;16.88;;;;;;;;;;5104265;28;20028;-79
2023/01/01 11:36:51;;;;;;;22.98;16.65;;;;;;;;;;5099095;28;20027;-81
2023/01/01 11:39:20;;;;;;;22.17;16.17;;;;;;;;;;5097713;28;20028;-82
2023/01/01 11:41:50;;;;;;;23.65;16.23;;;;;;;;;;5106021;28;20054;-81
2023/01/01 11:44:26;;;;;;;21.15;14.80;;;;;;;;;;5104566;28;20047;-81
2023/01/01 11:46:52;;;;;;;22.05;15.20;;;;;;;;;;5112848;28;20427;-79
2023/01/01 11:49:22;;;;;;;21.73;15.35;;;;;;;;;;5121003;28;20022;-80
2023/01/01 11:51:49;;;;;;;19.95;14.93;;;;;;;;;;5118196;28;20020;-82
2023/01/01 11:54:29;;;;;;;22.88;15.27;;;;;;;;;;5113302;28;20495;-81
2023/01/01 11:56:57;;;;;;;20.75;15.20;;;;;;;;;;5109428;28;20265;-80
2023/01/01 11:59:27;;;;;;;24.23;16.13;;;;;;;;;;5116638;28;20036;-81
2023/01/01 12:02:01;;;;;;;25.02;15.82;;;;;;;;;;5112436;28;20091;-82
2023/01/01 12:04:29;;;;;;;22.73;15.20;;;;;;;;;;5110540;28;20041;-83
2023/01/01 12:07:10;;;;;;;25.02;16.88;;;;;;;;;;5117988;28;20023;-81
2023/01/01 12:09:39;;;;;;;24.00;15.95;;;;;;;;;;5105868;28;20035;-81
2023/01/01 12:12:07;;;;;;;26.38;17.70;;;;;;;;;;5107439;28;20065;-81
2023/01/01 12:14:36;;;;;;;26.65;18.17;;;;;;;;;;5114800;28;20051;-81
2023/01/01 12:17:17;;;;;;;23.25;17.05;;;;;;;;;;5116455;28;20168;-82
2023/01/01 12:20:00;;;;;;;23.45;17.65;;;;;;;;;;5100076;28;20083;-83
2023/01/01 12:22:28;;;;;;;23.30;16.08;;;;;;;;;;5117966;28;20126;-81
2023/01/01 12:24:54;;;;;;;21.95;15.63;;;;;;;;;;5113008;28;20036;-79
2023/01/01 12:27:33;;;;;;;20.58;15.65;;;;;;;;;;5102642;28;20099;-81
2023/01/01 12:30:05;;;;;;;22.73;15.75;;;;;;;;;;5123404;28;20081;-81
2023/01/01 12:32:43;;;;;;;21.60;16.58;;;;;;;;;;5121458;28;20027;-81
2023/01/01 12:35:19;;;;;;;21.73;15.55;;;;;;;;;;5108483;28;20065;-81
2023/01/01 12:38:00;;;;;;;24.08;16.88;;;;;;;;;;5103711;28;20047;-83
2023/01/01 12:40:32;;;;;;;23.70;15.90;;;;;;;;;;5116991;27;20043;-82
2023/01/01 12:43:07;;;;;;;25.30;16.30;;;;;;;;;;5111949;28;20054;-79
2023/01/01 12:45:32;;;;;;;24.08;16.20;;;;;;;;;;5115445;28;20097;-81
2023/01/01 12:48:07;;;;;;;20.65;15.07;;;;;;;;;;5112122;28;20638;-81
2023/01/01 12:50:33;;;;;;;24.50;16.38;;;;;;;;;;5116885;28;20042;-79
2023/01/01 12:53:02;;;;;;;21.33;15.52;;;;;;;;;;5099740;28;20028;-82
2023/01/01 12:55:47;;;;;;;23.17;16.83;;;;;;;;;;5099352;28;20039;-80
2023/01/01 12:58:22;;;;;;;22.85;15.60;;;;;;;;;;5117457;28;20031;-81
2023/01/01 13:01:05;;;;;;;20.95;14.65;;;;;;;;;;5119375;28;20062;-81
2023/01/01 13:03:40;;;;;;;22.27;14.80;;;;;;;;;;5112020;28;21901;-81
2023/01/01 13:06:07;;;;;;;24.15;15.20;;;;;;;;;;5109531;28;20020;-81
2023/01/01 13:08:35;;;;;;;21.15;15.85;;;;;;;;;;5120335;28;20027;-81
2023/01/01 13:11:02;;;;;;;23.85;15.70;;;;;;;;;;5115459;28;20035;-81
2023/01/01 13:13:28;;;;;;;23.98;15.48;;;;;;;;;;5117661;28;20046;-81
2023/01/01 13:15:55;;;;;;;23.02;16.40;;;;;;;;;;5116442;28;20031;-81
2023/01/01 13:18:47;;;;;;;23.17;16.65;;;;;;;;;;5114338;28;20479;-81
2023/01/01 13:21:16;;;;;;;24.23;16.40;;;;;;;;;;5116659;28;20039;-81
2023/01/01 13:23:45;;;;;;;24.13;16.23;;;;;;;;;;5117341;28;20031;-80
2023/01/01 13:26:20;;;;;;;22.90;15.60;;;;;;;;;;5118692;28;20023;-81
2023/01/01 13:28:55;;;;;;;22.48;15.68;;;;;;;;;;5110083;28;20024;-81
2023/01/01 13:31:40;;;;;;;24.30;16.42;;;;;;;;;;5109532;28;20028;-82
2023/01/01 13:34:25;;;;;;;22.52;14.73;;;;;;;;;;5097944;28;20393;-81
2023/01/01 13:36:51;;;;;;;23.40;15.00;;;;;;;;;;5116354;28;20032;-82
2023/01/01 13:39:35;;;;;;;21.52;14.88;;;;;;;;;;5103194;28;20020;-81
2023/01/01 13:42:02;;;;;;;21.48;16.08;;;;;;;;;;5107787;27;20275;-81
2023/01/01 13:44:28;;;;;;;25.08;16.52;;;;;;;;;;5111229;28;20044;-82
2023/01/01 13:47:14;;;;;;;23.20;15.70;;;;;;;;;;5105786;28;20417;-81
2023/01/01 13:49:45;;;;;;;24.20;15.73;;;;;;;;;;5117167;28;20126;-82
2023/01/01 13:52:17;;;;;;;25.35;16.88;;;;;;;;;;5112059;28;20023;-82
2023/01/01 13:55:01;;;;;;;24.25;16.73;;;;;;;;;;5100308;28;20030;-82
2023/01/01 13:57:36;;;;;;;22.58;15.20;;;;;;;;;;5100091;28;20016;-81
2023/01/01 14:00:18;;;;;;;25.17;16.92;;;;;;;;;;5098169;28;20035;-81
2023/01/01 14:02:48;;;;;;;28.43;18.77;;;;;;;;;;5106985;28;20019;-82
2023/01/01 14:05:21;;;;;;;26.55;17.65;;;;;;;;;;5119809;28;20046;-83
2023/01/01 14:07:51;;;;;;;25.80;16.73;;;;;;;;;;5114195;28;20028;-80
2023/01/01 14:10:17;;;;;;;27.52;18.23;;;;;;;;;;5100061;28;20020;-82
2023/01/01 14:12:43;;;;;;;25.90;17.95;;;;;;;;;;5099163;28;20020;-82
2023/01/01 14:15:29;;;;;;;28.60;18.85;;;;;;;;;;5119290;28;20024;-82
2023/01/01 14:17:58;;;;;;;28.80;18.90;;;;;;;;;;5117287;28;20473;-81
2023/01/01 14:20:31;;;;;;;27.92;18.42;;;;;;;;;;5114732;28;20020;-83
2023/01/01 14:22:59;;;;;;;26.70;18.33;;;;;;;;;;5097537;28;20017;-82
2023/01/01 14:25:27;;;;;;;30.80;21.05;;;;;;;;;;5098482;28;20101;-82
2023/01/01 14:27:54;;;;;;;31.52;21.52;;;;;;;;;;5103037;28;20020;-82
2023/01/01 14:30:20;;;;;;;29.35;19.77;;;;;;;;;;5118449;28;20065;-83
2023/01/01 14:32:54;;;;;;;30.00;19.77;;;;;;;;;;5115739;28;20091;-83